sensor_id;sensor_type;location;lat;lon;timestamp;temperature;humidity
11650;DHT22;5881;48.522;7.682;2023-04-23T00:01:13;12.60;99.90
11650;DHT22;5881;48.522;7.682;2023-04-23T00:03:42;12.60;99.90
11650;DHT22;5881;48.522;7.682;2023-04-23T00:06:09;12.50;1.00
11650;DHT22;5881;48.522;7.682;2023-04-23T00:08:38;12.50;1.00
11650;DHT22;5881;48.522;7.682;2023-04-23T00:11:04;12.50;1.00
11650;DHT22;5881;48.522;7.682;2023-04-23T00:13:31;12.40;1.00
11650;DHT22;5881;48.522;7.682;2023-04-23T00:15:57;12.40;1.00
11650;DHT22;5881;48.522;7.682;2023-04-23T00:18:23;12.40;1.00
11650;DHT22;5881;48.522;7.682;2023-04-23T00:20:48;12.40;1.00
11650;DHT22;5881;48.522;7.682;2023-04-23T00:23:14;12.40;1.00
11650;DHT22;5881;48.522;7.682;2023-04-23T00:25:39;12.40;1.00
11650;DHT22;5881;48.522;7.682;2023-04-23T00:28:05;12.50;1.00
11650;DHT22;5881;48.522;7.682;2023-04-23T00:30:31;12.40;1.00
11650;DHT22;5881;48.522;7.682;2023-04-23T00:32:56;12.40;1.00
11650;DHT22;5881;48.522;7.682;2023-04-23T00:35:22;12.30;99.90
11650;DHT22;5881;48.522;7.682;2023-04-23T00:37:47;12.30;1.00
11650;DHT22;5881;48.522;7.682;2023-04-23T00:40:13;12.30;1.00
11650;DHT22;5881;48.522;7.682;2023-04-23T00:42:39;12.30;1.00
11650;DHT22;5881;48.522;7.682;2023-04-23T00:45:06;12.30;1.00
11650;DHT22;5881;48.522;7.682;2023-04-23T00:47:33;12.30;1.00
11650;DHT22;5881;48.522;7.682;2023-04-23T00:49:59;12.40;1.00
11650;DHT22;5881;48.522;7.682;2023-04-23T00:52:25;12.40;99.90
11650;DHT22;5881;48.522;7.682;2023-04-23T00:54:50;12.30;1.00
11650;DHT22;5881;48.522;7.682;2023-04-23T00:57:16;12.40;1.00
11650;DHT22;5881;48.522;7.682;2023-04-23T00:59:43;12.40;99.90
11650;DHT22;5881;48.522;7.682;2023-04-23T01:02:09;12.50;17.50
11650;DHT22;5881;48.522;7.682;2023-04-23T01:04:36;12.40;1.00
11650;DHT22;5881;48.522;7.682;2023-04-23T01:07:02;12.40;83.70
11650;DHT22;5881;48.522;7.682;2023-04-23T01:09:28;12.40;1.00
11650;DHT22;5881;48.522;7.682;2023-04-23T01:11:54;12.40;99.90
11650;DHT22;5881;48.522;7.682;2023-04-23T01:14:22;12.40;1.00
11650;DHT22;5881;48.522;7.682;2023-04-23T01:16:48;12.40;1.00
11650;DHT22;5881;48.522;7.682;2023-04-23T01:19:14;12.30;99.90
11650;DHT22;5881;48.522;7.682;2023-04-23T01:21:40;12.30;1.00
11650;DHT22;5881;48.522;7.682;2023-04-23T01:24:07;12.30;1.00
11650;DHT22;5881;48.522;7.682;2023-04-23T01:26:33;12.20;1.00
11650;DHT22;5881;48.522;7.682;2023-04-23T01:29:00;12.30;1.00
11650;DHT22;5881;48.522;7.682;2023-04-23T01:31:26;12.20;1.00
11650;DHT22;5881;48.522;7.682;2023-04-23T01:33:53;12.20;1.00
11650;DHT22;5881;48.522;7.682;2023-04-23T01:36:21;12.20;1.00
11650;DHT22;5881;48.522;7.682;2023-04-23T01:38:46;12.20;1.00
11650;DHT22;5881;48.522;7.682;2023-04-23T01:41:12;12.20;1.00
11650;DHT22;5881;48.522;7.682;2023-04-23T01:43:40;12.10;1.00
11650;DHT22;5881;48.522;7.682;2023-04-23T01:46:06;12.10;1.00
11650;DHT22;5881;48.522;7.682;2023-04-23T01:48:32;12.10;1.00
11650;DHT22;5881;48.522;7.682;2023-04-23T01:50:58;12.10;1.00
11650;DHT22;5881;48.522;7.682;2023-04-23T01:53:24;12.00;1.00
11650;DHT22;5881;48.522;7.682;2023-04-23T01:55:50;12.10;1.00
11650;DHT22;5881;48.522;7.682;2023-04-23T01:58:17;12.00;1.00
11650;DHT22;5881;48.522;7.682;2023-04-23T02:00:43;12.00;1.00
11650;DHT22;5881;48.522;7.682;2023-04-23T02:03:09;12.00;1.00
11650;DHT22;5881;48.522;7.682;2023-04-23T02:05:35;12.10;1.00
11650;DHT22;5881;48.522;7.682;2023-04-23T02:08:03;12.00;1.00
11650;DHT22;5881;48.522;7.682;2023-04-23T02:10:28;12.00;1.00
11650;DHT22;5881;48.522;7.682;2023-04-23T02:12:57;12.00;1.00
11650;DHT22;5881;48.522;7.682;2023-04-23T02:15:23;12.00;7.50
11650;DHT22;5881;48.522;7.682;2023-04-23T02:17:48;12.00;1.00
11650;DHT22;5881;48.522;7.682;2023-04-23T02:20:18;12.10;1.00
11650;DHT22;5881;48.522;7.682;2023-04-23T02:22:45;11.90;38.20
11650;DHT22;5881;48.522;7.682;2023-04-23T02:25:11;11.90;66.50
11650;DHT22;5881;48.522;7.682;2023-04-23T02:27:40;11.90;99.90
11650;DHT22;5881;48.522;7.682;2023-04-23T02:30:06;11.90;99.90
11650;DHT22;5881;48.522;7.682;2023-04-23T02:32:33;11.90;99.90
11650;DHT22;5881;48.522;7.682;2023-04-23T02:34:59;11.90;99.90
11650;DHT22;5881;48.522;7.682;2023-04-23T02:37:26;11.90;99.90
11650;DHT22;5881;48.522;7.682;2023-04-23T02:39:52;11.90;99.90
11650;DHT22;5881;48.522;7.682;2023-04-23T02:42:18;11.90;99.90
11650;DHT22;5881;48.522;7.682;2023-04-23T02:44:43;11.90;99.90
11650;DHT22;5881;48.522;7.682;2023-04-23T02:47:09;11.90;99.90
11650;DHT22;5881;48.522;7.682;2023-04-23T02:49:35;11.90;99.90
11650;DHT22;5881;48.522;7.682;2023-04-23T02:52:01;11.90;99.90
11650;DHT22;5881;48.522;7.682;2023-04-23T02:54:26;11.90;99.90
11650;DHT22;5881;48.522;7.682;2023-04-23T02:56:52;11.90;99.90
11650;DHT22;5881;48.522;7.682;2023-04-23T02:59:17;12.00;99.90
11650;DHT22;5881;48.522;7.682;2023-04-23T03:01:43;12.00;99.90
11650;DHT22;5881;48.522;7.682;2023-04-23T03:04:09;12.00;99.90
11650;DHT22;5881;48.522;7.682;2023-04-23T03:06:35;12.00;99.90
11650;DHT22;5881;48.522;7.682;2023-04-23T03:09:01;11.90;99.90
11650;DHT22;5881;48.522;7.682;2023-04-23T03:11:26;11.90;99.90
11650;DHT22;5881;48.522;7.682;2023-04-23T03:13:52;11.80;99.90
11650;DHT22;5881;48.522;7.682;2023-04-23T03:16:18;11.80;99.90
11650;DHT22;5881;48.522;7.682;2023-04-23T03:18:44;11.70;99.90
11650;DHT22;5881;48.522;7.682;2023-04-23T03:21:10;11.70;99.90
11650;DHT22;5881;48.522;7.682;2023-04-23T03:23:35;11.70;99.90
11650;DHT22;5881;48.522;7.682;2023-04-23T03:26:01;11.70;99.90
11650;DHT22;5881;48.522;7.682;2023-04-23T03:28:26;11.70;99.90
11650;DHT22;5881;48.522;7.682;2023-04-23T03:30:52;11.60;99.90
11650;DHT22;5881;48.522;7.682;2023-04-23T03:33:18;11.70;99.90
11650;DHT22;5881;48.522;7.682;2023-04-23T03:35:43;11.60;99.90
11650;DHT22;5881;48.522;7.682;2023-04-23T03:38:09;11.60;99.90
11650;DHT22;5881;48.522;7.682;2023-04-23T03:40:35;11.60;99.90
11650;DHT22;5881;48.522;7.682;2023-04-23T03:43:00;11.60;99.90
11650;DHT22;5881;48.522;7.682;2023-04-23T03:45:26;11.60;99.90
11650;DHT22;5881;48.522;7.682;2023-04-23T03:47:52;11.50;99.90
11650;DHT22;5881;48.522;7.682;2023-04-23T03:50:17;11.60;99.90
11650;DHT22;5881;48.522;7.682;2023-04-23T03:52:43;11.50;99.90
11650;DHT22;5881;48.522;7.682;2023-04-23T03:55:09;11.50;99.90
11650;DHT22;5881;48.522;7.682;2023-04-23T03:57:35;11.40;99.90
11650;DHT22;5881;48.522;7.682;2023-04-23T04:00:01;11.40;99.90
11650;DHT22;5881;48.522;7.682;2023-04-23T04:02:27;11.40;99.90
11650;DHT22;5881;48.522;7.682;2023-04-23T04:04:52;11.30;99.90
11650;DHT22;5881;48.522;7.682;2023-04-23T04:07:19;11.30;99.90
11650;DHT22;5881;48.522;7.682;2023-04-23T04:09:45;11.20;99.90
11650;DHT22;5881;48.522;7.682;2023-04-23T04:12:13;11.20;99.90
11650;DHT22;5881;48.522;7.682;2023-04-23T04:14:40;11.20;99.90
11650;DHT22;5881;48.522;7.682;2023-04-23T04:17:06;11.10;99.90
11650;DHT22;5881;48.522;7.682;2023-04-23T04:19:32;11.10;99.90
11650;DHT22;5881;48.522;7.682;2023-04-23T04:21:59;11.00;99.90
11650;DHT22;5881;48.522;7.682;2023-04-23T04:24:26;11.00;99.90
11650;DHT22;5881;48.522;7.682;2023-04-23T04:26:53;11.00;99.90
11650;DHT22;5881;48.522;7.682;2023-04-23T04:29:19;10.90;99.90
11650;DHT22;5881;48.522;7.682;2023-04-23T04:31:46;10.90;99.90
11650;DHT22;5881;48.522;7.682;2023-04-23T04:34:12;10.80;99.90
11650;DHT22;5881;48.522;7.682;2023-04-23T04:36:39;10.80;99.90
11650;DHT22;5881;48.522;7.682;2023-04-23T04:39:05;10.70;99.90
11650;DHT22;5881;48.522;7.682;2023-04-23T04:41:32;10.70;99.90
11650;DHT22;5881;48.522;7.682;2023-04-23T04:43:58;10.70;99.90
11650;DHT22;5881;48.522;7.682;2023-04-23T04:46:24;10.70;99.90
11650;DHT22;5881;48.522;7.682;2023-04-23T04:48:53;10.80;99.90
11650;DHT22;5881;48.522;7.682;2023-04-23T04:51:19;10.80;99.90
11650;DHT22;5881;48.522;7.682;2023-04-23T04:53:45;10.70;99.90
11650;DHT22;5881;48.522;7.682;2023-04-23T04:56:11;10.70;99.90
11650;DHT22;5881;48.522;7.682;2023-04-23T04:58:36;10.90;99.90
11650;DHT22;5881;48.522;7.682;2023-04-23T05:01:02;10.80;99.90
11650;DHT22;5881;48.522;7.682;2023-04-23T05:03:28;10.80;99.90
11650;DHT22;5881;48.522;7.682;2023-04-23T05:05:53;10.80;99.90
11650;DHT22;5881;48.522;7.682;2023-04-23T05:08:21;10.80;99.90
11650;DHT22;5881;48.522;7.682;2023-04-23T05:10:47;10.90;99.90
11650;DHT22;5881;48.522;7.682;2023-04-23T05:13:15;10.90;99.90
11650;DHT22;5881;48.522;7.682;2023-04-23T05:15:40;10.90;99.90
11650;DHT22;5881;48.522;7.682;2023-04-23T05:18:08;11.10;99.90
11650;DHT22;5881;48.522;7.682;2023-04-23T05:20:34;11.30;99.90
11650;DHT22;5881;48.522;7.682;2023-04-23T05:22:59;11.60;99.90
11650;DHT22;5881;48.522;7.682;2023-04-23T05:25:27;12.20;1.00
11650;DHT22;5881;48.522;7.682;2023-04-23T05:27:53;12.70;99.90
11650;DHT22;5881;48.522;7.682;2023-04-23T05:30:18;13.10;1.00
11650;DHT22;5881;48.522;7.682;2023-04-23T05:32:44;13.40;99.90
11650;DHT22;5881;48.522;7.682;2023-04-23T05:35:10;14.20;1.00
11650;DHT22;5881;48.522;7.682;2023-04-23T05:37:36;14.20;99.90
11650;DHT22;5881;48.522;7.682;2023-04-23T05:40:01;14.40;99.90
11650;DHT22;5881;48.522;7.682;2023-04-23T05:42:29;14.40;1.00
11650;DHT22;5881;48.522;7.682;2023-04-23T05:44:54;14.30;99.90
11650;DHT22;5881;48.522;7.682;2023-04-23T05:47:20;14.70;1.00
11650;DHT22;5881;48.522;7.682;2023-04-23T05:49:45;15.40;99.90
11650;DHT22;5881;48.522;7.682;2023-04-23T05:52:11;15.50;99.90
11650;DHT22;5881;48.522;7.682;2023-04-23T05:54:37;15.80;99.90
11650;DHT22;5881;48.522;7.682;2023-04-23T05:57:03;15.70;99.90
11650;DHT22;5881;48.522;7.682;2023-04-23T05:59:30;15.50;99.90
11650;DHT22;5881;48.522;7.682;2023-04-23T06:01:55;16.20;99.90
11650;DHT22;5881;48.522;7.682;2023-04-23T06:04:21;16.90;99.90
11650;DHT22;5881;48.522;7.682;2023-04-23T06:06:46;17.20;99.90
11650;DHT22;5881;48.522;7.682;2023-04-23T06:09:12;17.00;99.90
11650;DHT22;5881;48.522;7.682;2023-04-23T06:11:38;17.20;99.90
11650;DHT22;5881;48.522;7.682;2023-04-23T06:14:04;17.80;99.90
11650;DHT22;5881;48.522;7.682;2023-04-23T06:16:30;17.30;99.90
11650;DHT22;5881;48.522;7.682;2023-04-23T06:18:55;18.00;99.90
11650;DHT22;5881;48.522;7.682;2023-04-23T06:21:22;17.30;99.90
11650;DHT22;5881;48.522;7.682;2023-04-23T06:23:48;17.30;99.90
11650;DHT22;5881;48.522;7.682;2023-04-23T06:26:14;17.80;99.90
11650;DHT22;5881;48.522;7.682;2023-04-23T06:28:41;18.20;99.90
11650;DHT22;5881;48.522;7.682;2023-04-23T06:31:07;17.80;30.30
11650;DHT22;5881;48.522;7.682;2023-04-23T06:33:33;17.80;28.80
11650;DHT22;5881;48.522;7.682;2023-04-23T06:36:00;16.70;23.70
11650;DHT22;5881;48.522;7.682;2023-04-23T06:38:26;16.70;24.30
11650;DHT22;5881;48.522;7.682;2023-04-23T06:40:52;17.40;26.00
11650;DHT22;5881;48.522;7.682;2023-04-23T06:43:17;17.60;24.50
11650;DHT22;5881;48.522;7.682;2023-04-23T06:45:43;18.60;28.40
11650;DHT22;5881;48.522;7.682;2023-04-23T06:48:09;19.10;20.60
11650;DHT22;5881;48.522;7.682;2023-04-23T06:50:35;18.40;10.90
11650;DHT22;5881;48.522;7.682;2023-04-23T06:53:00;18.60;8.60
11650;DHT22;5881;48.522;7.682;2023-04-23T06:55:26;18.60;5.00
11650;DHT22;5881;48.522;7.682;2023-04-23T06:57:53;19.60;5.30
11650;DHT22;5881;48.522;7.682;2023-04-23T07:00:21;20.00;1.00
11650;DHT22;5881;48.522;7.682;2023-04-23T07:02:46;20.40;1.00
11650;DHT22;5881;48.522;7.682;2023-04-23T07:05:12;19.80;1.00
11650;DHT22;5881;48.522;7.682;2023-04-23T07:07:38;19.80;1.00
11650;DHT22;5881;48.522;7.682;2023-04-23T07:10:05;20.50;1.00
11650;DHT22;5881;48.522;7.682;2023-04-23T07:12:31;20.70;1.00
11650;DHT22;5881;48.522;7.682;2023-04-23T07:14:57;20.50;1.00
11650;DHT22;5881;48.522;7.682;2023-04-23T07:17:22;20.90;1.00
11650;DHT22;5881;48.522;7.682;2023-04-23T07:19:48;21.70;1.00
11650;DHT22;5881;48.522;7.682;2023-04-23T07:22:14;20.40;1.00
11650;DHT22;5881;48.522;7.682;2023-04-23T07:24:40;20.70;1.00
11650;DHT22;5881;48.522;7.682;2023-04-23T07:27:06;20.20;1.00
11650;DHT22;5881;48.522;7.682;2023-04-23T07:29:32;21.20;1.00
11650;DHT22;5881;48.522;7.682;2023-04-23T07:31:57;21.30;1.00
11650;DHT22;5881;48.522;7.682;2023-04-23T07:34:23;20.80;1.00
11650;DHT22;5881;48.522;7.682;2023-04-23T07:36:49;21.20;1.00
11650;DHT22;5881;48.522;7.682;2023-04-23T07:39:14;22.10;1.00
11650;DHT22;5881;48.522;7.682;2023-04-23T07:41:40;21.60;1.00
11650;DHT22;5881;48.522;7.682;2023-04-23T07:44:06;21.20;1.00
11650;DHT22;5881;48.522;7.682;2023-04-23T07:46:31;21.60;1.00
11650;DHT22;5881;48.522;7.682;2023-04-23T07:48:57;22.50;1.00
11650;DHT22;5881;48.522;7.682;2023-04-23T07:51:23;20.90;1.00
11650;DHT22;5881;48.522;7.682;2023-04-23T07:53:51;21.50;1.00
11650;DHT22;5881;48.522;7.682;2023-04-23T07:56:19;21.20;1.00
11650;DHT22;5881;48.522;7.682;2023-04-23T07:58:45;21.20;1.00
11650;DHT22;5881;48.522;7.682;2023-04-23T08:01:11;21.40;1.00
11650;DHT22;5881;48.522;7.682;2023-04-23T08:03:37;20.90;1.00
11650;DHT22;5881;48.522;7.682;2023-04-23T08:06:02;20.70;1.00
11650;DHT22;5881;48.522;7.682;2023-04-23T08:08:29;20.90;1.00
11650;DHT22;5881;48.522;7.682;2023-04-23T08:10:55;21.10;1.00
11650;DHT22;5881;48.522;7.682;2023-04-23T08:13:20;20.50;1.00
11650;DHT22;5881;48.522;7.682;2023-04-23T08:15:46;20.80;1.00
11650;DHT22;5881;48.522;7.682;2023-04-23T08:18:13;20.70;1.00
11650;DHT22;5881;48.522;7.682;2023-04-23T08:20:39;21.40;1.00
11650;DHT22;5881;48.522;7.682;2023-04-23T08:23:05;21.10;1.00
11650;DHT22;5881;48.522;7.682;2023-04-23T08:25:31;21.00;1.00
11650;DHT22;5881;48.522;7.682;2023-04-23T08:27:57;20.70;1.00
11650;DHT22;5881;48.522;7.682;2023-04-23T08:30:23;20.50;1.00
11650;DHT22;5881;48.522;7.682;2023-04-23T08:32:50;20.20;1.00
11650;DHT22;5881;48.522;7.682;2023-04-23T08:35:18;20.00;1.00
11650;DHT22;5881;48.522;7.682;2023-04-23T08:37:44;19.20;1.00
11650;DHT22;5881;48.522;7.682;2023-04-23T08:40:10;18.90;1.00
11650;DHT22;5881;48.522;7.682;2023-04-23T08:42:41;19.60;1.00
11650;DHT22;5881;48.522;7.682;2023-04-23T08:45:09;20.80;1.00
11650;DHT22;5881;48.522;7.682;2023-04-23T08:47:34;21.00;1.00
11650;DHT22;5881;48.522;7.682;2023-04-23T08:50:05;21.60;1.00
11650;DHT22;5881;48.522;7.682;2023-04-23T08:52:33;21.90;1.00
11650;DHT22;5881;48.522;7.682;2023-04-23T08:55:00;22.00;1.00
11650;DHT22;5881;48.522;7.682;2023-04-23T08:57:26;22.10;1.00
11650;DHT22;5881;48.522;7.682;2023-04-23T08:59:52;23.00;1.00
11650;DHT22;5881;48.522;7.682;2023-04-23T09:02:19;22.60;1.00
11650;DHT22;5881;48.522;7.682;2023-04-23T09:04:46;21.70;1.00
11650;DHT22;5881;48.522;7.682;2023-04-23T09:07:12;21.20;1.00
11650;DHT22;5881;48.522;7.682;2023-04-23T09:09:40;20.20;1.00
11650;DHT22;5881;48.522;7.682;2023-04-23T09:12:07;21.10;1.00
11650;DHT22;5881;48.522;7.682;2023-04-23T09:14:34;20.90;1.00
11650;DHT22;5881;48.522;7.682;2023-04-23T09:16:59;20.80;1.00
11650;DHT22;5881;48.522;7.682;2023-04-23T09:19:26;21.90;1.00
11650;DHT22;5881;48.522;7.682;2023-04-23T09:21:52;23.00;1.00
11650;DHT22;5881;48.522;7.682;2023-04-23T09:24:21;22.40;1.00
11650;DHT22;5881;48.522;7.682;2023-04-23T09:26:49;20.40;1.00
11650;DHT22;5881;48.522;7.682;2023-04-23T09:29:16;19.50;1.00
11650;DHT22;5881;48.522;7.682;2023-04-23T09:31:46;19.10;1.00
11650;DHT22;5881;48.522;7.682;2023-04-23T09:34:18;19.10;1.00
11650;DHT22;5881;48.522;7.682;2023-04-23T09:36:45;19.60;1.00
11650;DHT22;5881;48.522;7.682;2023-04-23T09:39:12;18.80;1.00
11650;DHT22;5881;48.522;7.682;2023-04-23T09:41:38;20.20;1.00
11650;DHT22;5881;48.522;7.682;2023-04-23T09:44:04;21.10;1.00
11650;DHT22;5881;48.522;7.682;2023-04-23T09:46:42;20.60;1.00
11650;DHT22;5881;48.522;7.682;2023-04-23T09:49:09;20.80;1.00
11650;DHT22;5881;48.522;7.682;2023-04-23T09:51:43;21.10;1.00
11650;DHT22;5881;48.522;7.682;2023-04-23T09:56:41;20.20;1.00
11650;DHT22;5881;48.522;7.682;2023-04-23T09:59:26;20.30;1.00
11650;DHT22;5881;48.522;7.682;2023-04-23T10:01:52;20.00;1.00
11650;DHT22;5881;48.522;7.682;2023-04-23T10:04:22;20.40;1.00
11650;DHT22;5881;48.522;7.682;2023-04-23T10:06:53;20.70;1.00
11650;DHT22;5881;48.522;7.682;2023-04-23T10:09:20;21.00;1.00
11650;DHT22;5881;48.522;7.682;2023-04-23T10:11:51;21.50;1.00
11650;DHT22;5881;48.522;7.682;2023-04-23T10:14:18;20.70;1.00
11650;DHT22;5881;48.522;7.682;2023-04-23T10:16:45;20.60;1.00
11650;DHT22;5881;48.522;7.682;2023-04-23T10:19:13;20.80;1.00
11650;DHT22;5881;48.522;7.682;2023-04-23T10:21:43;22.20;1.00
11650;DHT22;5881;48.522;7.682;2023-04-23T10:24:11;22.40;1.00
11650;DHT22;5881;48.522;7.682;2023-04-23T10:26:38;23.10;1.00
11650;DHT22;5881;48.522;7.682;2023-04-23T10:29:10;23.60;1.00
11650;DHT22;5881;48.522;7.682;2023-04-23T10:31:38;24.00;1.00
11650;DHT22;5881;48.522;7.682;2023-04-23T10:34:05;24.80;1.00
11650;DHT22;5881;48.522;7.682;2023-04-23T10:36:32;25.50;1.00
11650;DHT22;5881;48.522;7.682;2023-04-23T10:38:58;24.00;1.00
11650;DHT22;5881;48.522;7.682;2023-04-23T10:41:34;23.20;1.00
11650;DHT22;5881;48.522;7.682;2023-04-23T10:44:05;22.90;1.00
11650;DHT22;5881;48.522;7.682;2023-04-23T10:46:32;24.10;1.00
11650;DHT22;5881;48.522;7.682;2023-04-23T10:49:11;23.30;1.00
11650;DHT22;5881;48.522;7.682;2023-04-23T10:51:39;22.40;1.00
11650;DHT22;5881;48.522;7.682;2023-04-23T10:54:08;22.90;1.00
11650;DHT22;5881;48.522;7.682;2023-04-23T10:56:39;23.20;1.00
11650;DHT22;5881;48.522;7.682;2023-04-23T10:59:07;23.90;1.00
11650;DHT22;5881;48.522;7.682;2023-04-23T11:01:33;22.70;1.00
11650;DHT22;5881;48.522;7.682;2023-04-23T11:04:27;23.30;1.00
11650;DHT22;5881;48.522;7.682;2023-04-23T11:06:55;24.80;1.00
11650;DHT22;5881;48.522;7.682;2023-04-23T11:09:31;24.50;1.00
11650;DHT22;5881;48.522;7.682;2023-04-23T11:12:01;24.00;1.00
11650;DHT22;5881;48.522;7.682;2023-04-23T11:14:36;23.30;1.00
11650;DHT22;5881;48.522;7.682;2023-04-23T11:17:05;22.30;1.00
11650;DHT22;5881;48.522;7.682;2023-04-23T11:19:34;22.00;1.00
11650;DHT22;5881;48.522;7.682;2023-04-23T11:22:04;22.90;1.00
11650;DHT22;5881;48.522;7.682;2023-04-23T11:24:32;22.30;1.00
11650;DHT22;5881;48.522;7.682;2023-04-23T11:26:58;22.60;1.00
11650;DHT22;5881;48.522;7.682;2023-04-23T11:29:25;23.60;1.00
11650;DHT22;5881;48.522;7.682;2023-04-23T11:31:52;23.50;1.00
11650;DHT22;5881;48.522;7.682;2023-04-23T11:34:18;23.70;1.00
11650;DHT22;5881;48.522;7.682;2023-04-23T11:36:46;23.30;1.00
11650;DHT22;5881;48.522;7.682;2023-04-23T11:39:12;22.70;1.00
11650;DHT22;5881;48.522;7.682;2023-04-23T11:41:38;23.20;1.00
11650;DHT22;5881;48.522;7.682;2023-04-23T11:44:04;22.70;1.00
11650;DHT22;5881;48.522;7.682;2023-04-23T11:46:31;22.00;1.00
11650;DHT22;5881;48.522;7.682;2023-04-23T11:48:58;21.60;1.00
11650;DHT22;5881;48.522;7.682;2023-04-23T11:51:25;20.80;1.00
11650;DHT22;5881;48.522;7.682;2023-04-23T11:53:51;21.00;1.00
11650;DHT22;5881;48.522;7.682;2023-04-23T11:56:17;21.10;1.00
11650;DHT22;5881;48.522;7.682;2023-04-23T11:58:43;21.20;1.00
11650;DHT22;5881;48.522;7.682;2023-04-23T12:01:10;20.60;1.00
11650;DHT22;5881;48.522;7.682;2023-04-23T12:03:37;21.30;1.00
11650;DHT22;5881;48.522;7.682;2023-04-23T12:06:02;21.80;1.00
11650;DHT22;5881;48.522;7.682;2023-04-23T12:08:32;21.90;1.00
11650;DHT22;5881;48.522;7.682;2023-04-23T12:11:03;21.90;1.00
11650;DHT22;5881;48.522;7.682;2023-04-23T12:13:31;21.90;1.00
11650;DHT22;5881;48.522;7.682;2023-04-23T12:16:02;21.70;1.00
11650;DHT22;5881;48.522;7.682;2023-04-23T12:18:31;21.80;1.00
11650;DHT22;5881;48.522;7.682;2023-04-23T12:21:09;21.90;1.00
11650;DHT22;5881;48.522;7.682;2023-04-23T12:23:40;21.90;1.00
11650;DHT22;5881;48.522;7.682;2023-04-23T12:26:14;22.20;1.00
11650;DHT22;5881;48.522;7.682;2023-04-23T12:28:49;21.50;1.00
11650;DHT22;5881;48.522;7.682;2023-04-23T12:31:20;20.80;1.00
11650;DHT22;5881;48.522;7.682;2023-04-23T12:33:46;20.90;1.00
11650;DHT22;5881;48.522;7.682;2023-04-23T12:36:14;21.00;1.00
11650;DHT22;5881;48.522;7.682;2023-04-23T12:38:43;21.50;1.00
11650;DHT22;5881;48.522;7.682;2023-04-23T12:41:09;21.30;1.00
11650;DHT22;5881;48.522;7.682;2023-04-23T12:43:35;20.80;1.00
11650;DHT22;5881;48.522;7.682;2023-04-23T12:46:01;21.00;1.00
11650;DHT22;5881;48.522;7.682;2023-04-23T12:48:26;20.80;1.00
11650;DHT22;5881;48.522;7.682;2023-04-23T12:50:52;20.70;1.00
11650;DHT22;5881;48.522;7.682;2023-04-23T12:53:17;20.80;1.00
11650;DHT22;5881;48.522;7.682;2023-04-23T12:55:43;20.60;1.00
11650;DHT22;5881;48.522;7.682;2023-04-23T12:58:10;20.90;1.00
11650;DHT22;5881;48.522;7.682;2023-04-23T13:00:35;20.80;1.00
11650;DHT22;5881;48.522;7.682;2023-04-23T13:03:01;21.30;1.00
11650;DHT22;5881;48.522;7.682;2023-04-23T13:05:27;21.60;1.00
11650;DHT22;5881;48.522;7.682;2023-04-23T13:07:53;21.90;1.00
11650;DHT22;5881;48.522;7.682;2023-04-23T13:10:19;21.40;1.00
11650;DHT22;5881;48.522;7.682;2023-04-23T13:12:44;21.60;1.00
11650;DHT22;5881;48.522;7.682;2023-04-23T13:15:10;21.40;1.00
11650;DHT22;5881;48.522;7.682;2023-04-23T13:17:39;21.40;1.00
11650;DHT22;5881;48.522;7.682;2023-04-23T13:20:06;21.30;1.00
11650;DHT22;5881;48.522;7.682;2023-04-23T13:22:31;21.40;1.00
11650;DHT22;5881;48.522;7.682;2023-04-23T13:24:58;21.20;1.00
11650;DHT22;5881;48.522;7.682;2023-04-23T13:27:26;21.00;1.00
11650;DHT22;5881;48.522;7.682;2023-04-23T13:29:52;21.20;1.00
11650;DHT22;5881;48.522;7.682;2023-04-23T13:32:18;21.60;1.00
11650;DHT22;5881;48.522;7.682;2023-04-23T13:34:44;21.60;1.00
11650;DHT22;5881;48.522;7.682;2023-04-23T13:37:09;21.70;1.00
11650;DHT22;5881;48.522;7.682;2023-04-23T13:39:36;21.50;1.00
11650;DHT22;5881;48.522;7.682;2023-04-23T13:42:02;22.00;1.00
11650;DHT22;5881;48.522;7.682;2023-04-23T13:44:29;22.20;1.00
11650;DHT22;5881;48.522;7.682;2023-04-23T13:46:55;22.10;1.00
11650;DHT22;5881;48.522;7.682;2023-04-23T13:49:25;21.90;1.00
11650;DHT22;5881;48.522;7.682;2023-04-23T13:51:53;22.00;1.00
11650;DHT22;5881;48.522;7.682;2023-04-23T13:54:24;22.00;1.00
11650;DHT22;5881;48.522;7.682;2023-04-23T13:56:53;22.30;1.00
11650;DHT22;5881;48.522;7.682;2023-04-23T13:59:18;22.20;1.00
11650;DHT22;5881;48.522;7.682;2023-04-23T14:01:44;21.70;1.00
11650;DHT22;5881;48.522;7.682;2023-04-23T14:04:11;21.60;1.00
11650;DHT22;5881;48.522;7.682;2023-04-23T14:06:36;21.70;1.00
11650;DHT22;5881;48.522;7.682;2023-04-23T14:09:02;21.40;1.00
11650;DHT22;5881;48.522;7.682;2023-04-23T14:11:28;21.60;1.00
11650;DHT22;5881;48.522;7.682;2023-04-23T14:13:54;21.80;1.00
11650;DHT22;5881;48.522;7.682;2023-04-23T14:16:20;21.50;1.00
11650;DHT22;5881;48.522;7.682;2023-04-23T14:18:46;20.90;1.00
11650;DHT22;5881;48.522;7.682;2023-04-23T14:21:11;20.80;1.00
11650;DHT22;5881;48.522;7.682;2023-04-23T14:23:49;20.80;1.00
11650;DHT22;5881;48.522;7.682;2023-04-23T14:26:33;20.80;1.00
11650;DHT22;5881;48.522;7.682;2023-04-23T14:29:08;20.70;1.00
11650;DHT22;5881;48.522;7.682;2023-04-23T14:31:36;20.70;1.00
11650;DHT22;5881;48.522;7.682;2023-04-23T14:34:03;20.70;1.00
11650;DHT22;5881;48.522;7.682;2023-04-23T14:36:29;20.60;1.00
11650;DHT22;5881;48.522;7.682;2023-04-23T14:38:55;20.50;1.00
11650;DHT22;5881;48.522;7.682;2023-04-23T14:41:22;19.90;1.00
11650;DHT22;5881;48.522;7.682;2023-04-23T14:43:48;19.70;1.00
11650;DHT22;5881;48.522;7.682;2023-04-23T14:46:14;19.70;1.00
11650;DHT22;5881;48.522;7.682;2023-04-23T14:48:40;19.30;1.00
11650;DHT22;5881;48.522;7.682;2023-04-23T14:51:05;19.20;1.00
11650;DHT22;5881;48.522;7.682;2023-04-23T14:53:31;19.00;1.00
11650;DHT22;5881;48.522;7.682;2023-04-23T14:55:57;18.20;1.00
11650;DHT22;5881;48.522;7.682;2023-04-23T14:58:22;18.00;1.00
11650;DHT22;5881;48.522;7.682;2023-04-23T15:00:48;17.60;1.00
11650;DHT22;5881;48.522;7.682;2023-04-23T15:03:15;17.90;1.00
11650;DHT22;5881;48.522;7.682;2023-04-23T15:05:41;18.20;1.00
11650;DHT22;5881;48.522;7.682;2023-04-23T15:08:07;18.30;1.00
11650;DHT22;5881;48.522;7.682;2023-04-23T15:10:33;18.10;1.00
11650;DHT22;5881;48.522;7.682;2023-04-23T15:13:27;18.20;1.00
11650;DHT22;5881;48.522;7.682;2023-04-23T15:15:55;18.30;1.00
11650;DHT22;5881;48.522;7.682;2023-04-23T15:18:24;18.30;1.00
11650;DHT22;5881;48.522;7.682;2023-04-23T15:20:50;18.50;1.00
11650;DHT22;5881;48.522;7.682;2023-04-23T15:23:15;18.40;1.00
11650;DHT22;5881;48.522;7.682;2023-04-23T15:25:43;18.50;1.00
11650;DHT22;5881;48.522;7.682;2023-04-23T15:28:09;18.40;1.00
11650;DHT22;5881;48.522;7.682;2023-04-23T15:30:34;18.10;1.00
11650;DHT22;5881;48.522;7.682;2023-04-23T15:33:00;17.90;1.00
11650;DHT22;5881;48.522;7.682;2023-04-23T15:35:26;17.80;1.00
11650;DHT22;5881;48.522;7.682;2023-04-23T15:37:53;17.60;1.00
11650;DHT22;5881;48.522;7.682;2023-04-23T15:40:18;17.40;1.00
11650;DHT22;5881;48.522;7.682;2023-04-23T15:42:44;17.20;1.00
11650;DHT22;5881;48.522;7.682;2023-04-23T15:45:10;17.10;1.00
11650;DHT22;5881;48.522;7.682;2023-04-23T15:47:37;16.90;1.00
11650;DHT22;5881;48.522;7.682;2023-04-23T15:50:09;16.80;1.00
11650;DHT22;5881;48.522;7.682;2023-04-23T15:52:35;16.60;1.00
11650;DHT22;5881;48.522;7.682;2023-04-23T15:55:01;16.60;1.00
11650;DHT22;5881;48.522;7.682;2023-04-23T15:57:27;16.60;1.00